createdAt,value
2017-04-11T00:00:57.400Z,65.95
2017-04-11T00:01:55.914Z,65.25
2017-04-11T00:02:54.751Z,65.13
2017-04-11T00:03:53.277Z,65.21
2017-04-11T00:04:51.796Z,65.53
2017-04-11T00:05:50.372Z,65.52
2017-04-11T00:06:48.951Z,65.95
2017-04-11T00:07:47.463Z,66.13
2017-04-11T00:08:46.155Z,66.19
2017-04-11T00:09:44.688Z,66.01
2017-04-11T00:10:43.236Z,66.11
2017-04-11T00:11:41.731Z,66.78
2017-04-11T00:12:40.330Z,67.04
2017-04-11T00:13:38.944Z,67.38
2017-04-11T00:14:37.464Z,66.65
2017-04-11T00:15:35.955Z,66.58
2017-04-11T00:16:34.445Z,66.41
2017-04-11T00:17:32.983Z,66.17
2017-04-11T00:18:31.502Z,66.22
2017-04-11T00:19:30.011Z,66.66
2017-04-11T00:20:28.503Z,66.86
2017-04-11T00:21:27.028Z,66.12
2017-04-11T00:22:25.604Z,66.28
2017-04-11T00:23:24.114Z,66.54
2017-04-11T00:24:22.684Z,67.09
2017-04-11T00:25:21.325Z,66.72
2017-04-11T00:26:19.901Z,66.91
2017-04-11T00:27:18.398Z,67.28
2017-04-11T00:28:17.035Z,67.15
2017-04-11T00:29:15.607Z,66.99
2017-04-11T00:30:14.139Z,67.19
2017-04-11T00:31:12.647Z,67.46
2017-04-11T00:32:11.139Z,67.33
2017-04-11T00:33:09.640Z,67.24
2017-04-11T00:34:08.132Z,67.51
2017-04-11T00:35:06.627Z,67.82
2017-04-11T00:36:05.180Z,68.06
2017-04-11T00:37:03.709Z,68.05
2017-04-11T00:38:02.187Z,68.42
2017-04-11T00:39:00.679Z,68.58
2017-04-11T00:39:59.272Z,68.19
2017-04-11T00:40:57.760Z,68.48
2017-04-11T00:41:56.298Z,68.09
2017-04-11T00:42:54.823Z,67.93
2017-04-11T00:43:53.451Z,68.63
2017-04-11T00:44:52.035Z,68.25
2017-04-11T00:45:50.538Z,68.50
2017-04-11T00:46:49.067Z,68.12
2017-04-11T00:47:47.587Z,68.58
2017-04-11T00:48:46.065Z,69.27
2017-04-11T00:49:44.570Z,68.59
2017-04-11T00:50:43.065Z,68.22
2017-04-11T00:51:41.722Z,68.86
2017-04-11T00:52:40.238Z,69.45
2017-04-11T00:53:38.772Z,69.35
2017-04-11T00:54:37.251Z,69.55
2017-04-11T00:55:35.771Z,69.28
2017-04-11T00:56:34.339Z,69.15
2017-04-11T00:57:32.943Z,69.00
2017-04-11T00:58:31.470Z,68.72
2017-04-11T00:59:30.083Z,68.25
2017-04-11T01:00:28.649Z,68.59
2017-04-11T01:01:27.174Z,69.21
2017-04-11T01:02:25.714Z,69.04
2017-04-11T01:03:24.354Z,69.08
2017-04-11T01:04:22.938Z,69.29
2017-04-11T01:05:21.426Z,69.72
2017-04-11T01:06:19.939Z,69.83
2017-04-11T01:07:19.228Z,70.02
2017-04-11T01:08:17.759Z,69.69
2017-04-11T01:09:16.272Z,69.54
2017-04-11T01:10:14.964Z,69.77
2017-04-11T01:11:13.532Z,70.10
2017-04-11T01:12:12.169Z,70.40
2017-04-11T01:13:10.649Z,70.23
2017-04-11T01:14:09.128Z,70.28
2017-04-11T01:15:07.702Z,69.32
2017-04-11T01:16:06.311Z,69.50
2017-04-11T01:17:04.938Z,69.65
2017-04-11T01:18:03.551Z,68.98
2017-04-11T01:19:02.095Z,69.69
2017-04-11T01:20:00.599Z,69.95
2017-04-11T01:20:59.079Z,69.94
2017-04-11T01:21:57.637Z,70.33
2017-04-11T01:22:56.139Z,70.47
2017-04-11T01:23:54.987Z,70.48
2017-04-11T01:24:53.592Z,70.46
2017-04-11T01:25:52.144Z,70.52
2017-04-11T01:26:50.644Z,70.59
2017-04-11T01:27:49.165Z,70.85
2017-04-11T01:28:47.756Z,70.65
2017-04-11T01:29:46.284Z,70.56
2017-04-11T01:30:44.879Z,70.12
2017-04-11T01:31:43.374Z,69.83
2017-04-11T01:32:41.891Z,69.56
2017-04-11T01:33:40.406Z,69.97
2017-04-11T01:34:38.923Z,70.32
2017-04-11T01:35:37.404Z,70.88
2017-04-11T01:36:35.939Z,70.56
2017-04-11T01:37:34.519Z,70.05
2017-04-11T01:38:33.134Z,70.10
2017-04-11T01:39:31.627Z,70.49
2017-04-11T01:40:30.234Z,70.93
2017-04-11T01:41:28.775Z,71.73
2017-04-11T01:42:27.268Z,71.04
2017-04-11T01:43:25.826Z,71.25
2017-04-11T01:44:24.306Z,71.12
2017-04-11T01:45:22.843Z,71.10
2017-04-11T01:46:21.387Z,71.42
2017-04-11T01:47:19.942Z,70.78
2017-04-11T01:48:18.535Z,70.70
2017-04-11T01:49:17.081Z,70.73
2017-04-11T01:50:15.595Z,70.68
2017-04-11T01:51:14.099Z,70.81
2017-04-11T01:52:12.599Z,70.70
2017-04-11T01:53:11.075Z,70.52
2017-04-11T01:54:09.587Z,70.17
2017-04-11T01:55:08.167Z,70.32
2017-04-11T01:56:06.783Z,70.20
2017-04-11T01:57:05.379Z,70.86
2017-04-11T01:58:03.850Z,71.36
2017-04-11T01:59:02.401Z,71.85
2017-04-11T02:00:00.919Z,71.84
2017-04-11T02:00:59.455Z,71.74
2017-04-11T02:01:57.943Z,71.99
2017-04-11T02:02:56.436Z,71.87
2017-04-11T02:03:54.936Z,71.53
2017-04-11T02:04:53.530Z,71.79
2017-04-11T02:05:52.003Z,72.05
2017-04-11T02:06:50.483Z,72.17
2017-04-11T02:07:49.075Z,72.45
2017-04-11T02:08:47.752Z,71.80
2017-04-11T02:09:46.529Z,71.81
2017-04-11T02:10:45.015Z,71.47
2017-04-11T02:11:43.611Z,71.67
2017-04-11T02:12:42.106Z,71.95
2017-04-11T02:13:40.623Z,71.90
2017-04-11T02:14:39.130Z,71.61
2017-04-11T02:15:37.742Z,72.08
2017-04-11T02:16:36.239Z,71.96
2017-04-11T02:17:34.763Z,72.30
2017-04-11T02:18:33.286Z,72.29
2017-04-11T02:19:32.159Z,72.61
2017-04-11T02:20:30.680Z,71.84
2017-04-11T02:21:29.182Z,72.40
2017-04-11T02:22:27.754Z,72.65
2017-04-11T02:23:26.319Z,72.72
2017-04-11T02:24:24.830Z,72.76
2017-04-11T02:25:23.328Z,72.42
2017-04-11T02:26:21.946Z,72.50
2017-04-11T02:27:20.564Z,72.16
2017-04-11T02:28:19.080Z,72.17
2017-04-11T02:29:17.627Z,72.69
2017-04-11T02:30:16.139Z,72.66
2017-04-11T02:31:14.607Z,72.82
2017-04-11T02:32:13.221Z,72.92
2017-04-11T02:33:11.748Z,72.82
2017-04-11T02:34:10.229Z,72.54
2017-04-11T02:35:08.713Z,72.40
2017-04-11T02:36:07.330Z,73.29
2017-04-11T02:37:05.877Z,72.72
2017-04-11T02:38:04.396Z,72.93
2017-04-11T02:39:02.913Z,72.71
2017-04-11T02:40:01.425Z,72.74
2017-04-11T02:40:59.976Z,73.07
2017-04-11T02:41:58.479Z,73.09
2017-04-11T02:42:56.987Z,73.25
2017-04-11T02:43:55.537Z,73.33
2017-04-11T02:44:54.335Z,73.72
2017-04-11T02:45:52.880Z,73.29
2017-04-11T02:46:51.366Z,73.80
2017-04-11T02:47:49.905Z,73.56
2017-04-11T02:48:48.436Z,73.55
2017-04-11T02:49:46.907Z,73.58
2017-04-11T02:50:45.382Z,73.40
2017-04-11T02:51:43.959Z,73.33
2017-04-11T02:52:42.447Z,72.76
2017-04-11T02:53:41.003Z,72.75
2017-04-11T02:54:39.608Z,72.34
2017-04-11T02:55:38.206Z,72.91
2017-04-11T02:56:36.700Z,72.79
2017-04-11T02:57:35.195Z,73.10
2017-04-11T02:58:33.677Z,72.39
2017-04-11T02:59:32.259Z,73.22
2017-04-11T03:00:30.759Z,73.50
2017-04-11T03:01:29.321Z,74.08
2017-04-11T03:02:27.818Z,74.33
2017-04-11T03:03:26.394Z,74.39
2017-04-11T03:04:24.871Z,74.26
2017-04-11T03:05:23.387Z,73.44
2017-04-11T03:06:21.923Z,73.38
2017-04-11T03:07:20.543Z,73.11
2017-04-11T03:08:19.023Z,73.24
2017-04-11T03:09:17.538Z,73.28
2017-04-11T03:10:16.043Z,73.24
2017-04-11T03:11:14.549Z,73.53
2017-04-11T03:12:13.023Z,74.15
2017-04-11T03:13:11.507Z,74.01
2017-04-11T03:14:10.051Z,73.72
2017-04-11T03:15:08.559Z,73.80
2017-04-11T03:16:07.047Z,73.50
2017-04-11T03:17:05.795Z,73.65
2017-04-11T03:18:04.278Z,73.30
2017-04-11T03:19:02.883Z,73.07
2017-04-11T03:20:01.422Z,73.25
2017-04-11T03:20:59.945Z,73.12
2017-04-11T03:21:58.507Z,73.42
2017-04-11T03:22:57.008Z,73.27
2017-04-11T03:23:55.544Z,73.89
2017-04-11T03:24:54.125Z,73.59
2017-04-11T03:25:52.623Z,73.90
2017-04-11T03:26:51.130Z,74.20
2017-04-11T03:27:49.643Z,74.25
2017-04-11T03:28:48.146Z,74.13
2017-04-11T03:29:46.636Z,73.89
2017-04-11T03:30:45.143Z,73.71
2017-04-11T03:31:43.645Z,74.08
2017-04-11T03:32:42.144Z,74.18
2017-04-11T03:33:40.671Z,74.25
2017-04-11T03:34:39.243Z,73.91
2017-04-11T03:35:37.876Z,74.23
2017-04-11T03:36:36.424Z,74.27
2017-04-11T03:37:34.956Z,73.85
2017-04-11T03:38:33.449Z,73.77
2017-04-11T03:39:31.977Z,74.33
2017-04-11T03:40:30.512Z,74.46
2017-04-11T03:41:29.091Z,74.64
2017-04-11T03:42:27.554Z,75.09
2017-04-11T03:43:26.043Z,75.02
2017-04-11T03:44:24.584Z,74.71
2017-04-11T03:45:23.135Z,74.82
2017-04-11T03:46:21.651Z,74.47
2017-04-11T03:47:20.123Z,74.58
2017-04-11T03:48:18.695Z,75.36
2017-04-11T03:49:17.211Z,74.99
2017-04-11T03:50:15.715Z,75.24
2017-04-11T03:51:14.218Z,75.20
2017-04-11T03:52:12.727Z,75.16
2017-04-11T03:53:11.284Z,75.01
2017-04-11T03:54:09.796Z,75.38
2017-04-11T03:55:08.275Z,74.89
2017-04-11T03:56:06.778Z,75.35
2017-04-11T03:57:05.264Z,75.57
2017-04-11T03:58:03.753Z,74.29
2017-04-11T03:59:02.291Z,74.47
2017-04-11T04:00:00.953Z,75.04
2017-04-11T04:01:00.128Z,74.64
2017-04-11T04:01:58.710Z,74.14
2017-04-11T04:02:57.226Z,74.43
2017-04-11T04:03:55.731Z,74.87
2017-04-11T04:04:54.288Z,75.52
2017-04-11T04:05:53.272Z,75.50
2017-04-11T04:06:51.786Z,74.91
2017-04-11T04:07:50.258Z,74.70
2017-04-11T04:08:48.884Z,74.64
2017-04-11T04:09:47.457Z,75.16
2017-04-11T04:10:46.032Z,75.32
2017-04-11T04:11:44.559Z,75.51
2017-04-11T04:12:43.047Z,75.77
2017-04-11T04:13:41.534Z,75.86
2017-04-11T04:14:40.156Z,75.42
2017-04-11T04:15:38.737Z,75.59
2017-04-11T04:16:37.300Z,75.73
2017-04-11T04:17:35.911Z,75.02
2017-04-11T04:18:34.434Z,75.05
2017-04-11T04:19:33.109Z,74.68
2017-04-11T04:20:31.603Z,74.50
2017-04-11T04:21:30.112Z,75.66
2017-04-11T04:22:28.595Z,75.26
2017-04-11T04:23:27.080Z,74.54
2017-04-11T04:24:25.595Z,74.54
2017-04-11T04:25:24.108Z,75.01
2017-04-11T04:26:22.651Z,75.82
2017-04-11T04:27:21.191Z,76.28
2017-04-11T04:28:19.735Z,76.47
2017-04-11T04:29:18.373Z,76.75
2017-04-11T04:30:16.876Z,75.53
2017-04-11T04:31:15.715Z,75.69
2017-04-11T04:32:14.208Z,75.15
2017-04-11T04:33:12.735Z,75.08
2017-04-11T04:34:11.196Z,75.50
2017-04-11T04:35:09.735Z,75.00
2017-04-11T04:36:08.225Z,75.39
2017-04-11T04:37:06.747Z,74.76
2017-04-11T04:38:05.283Z,75.45
2017-04-11T04:39:03.891Z,75.52
2017-04-11T04:40:02.404Z,75.79
2017-04-11T04:41:00.998Z,75.78
2017-04-11T04:41:59.603Z,75.64
2017-04-11T04:42:58.219Z,75.63
2017-04-11T04:43:56.861Z,75.34
2017-04-11T04:44:55.373Z,75.51
2017-04-11T04:45:53.861Z,75.27
2017-04-11T04:46:52.354Z,75.18
2017-04-11T04:47:50.859Z,74.86
2017-04-11T04:48:49.359Z,75.08
2017-04-11T04:49:47.856Z,75.63
2017-04-11T04:50:46.355Z,76.02
2017-04-11T04:51:44.860Z,75.84
2017-04-11T04:52:43.377Z,76.26
2017-04-11T04:53:41.872Z,77.19
2017-04-11T04:54:40.366Z,76.40
2017-04-11T04:55:38.939Z,76.67
2017-04-11T04:56:37.475Z,76.91
2017-04-11T04:57:35.964Z,76.55
2017-04-11T04:58:34.468Z,76.58
2017-04-11T04:59:32.989Z,76.14
2017-04-11T05:00:31.668Z,76.16
2017-04-11T05:01:30.168Z,76.04
2017-04-11T05:02:28.668Z,76.33
2017-04-11T05:03:28.217Z,76.08
2017-04-11T05:04:26.764Z,76.13
2017-04-11T05:05:25.408Z,75.95
2017-04-11T05:06:23.935Z,76.66
2017-04-11T05:07:22.479Z,76.30
2017-04-11T05:08:21.211Z,76.23
2017-04-11T05:09:19.958Z,76.64
2017-04-11T05:10:18.591Z,76.81
2017-04-11T05:11:17.110Z,76.31
2017-04-11T05:12:15.663Z,75.74
2017-04-11T05:13:14.161Z,75.62
2017-04-11T05:14:12.687Z,75.67
2017-04-11T05:15:11.187Z,76.12
2017-04-11T05:16:09.697Z,75.56
2017-04-11T05:17:08.234Z,75.48
2017-04-11T05:18:06.833Z,75.75
2017-04-11T05:19:05.474Z,75.65
2017-04-11T05:20:04.114Z,75.78
2017-04-11T05:21:02.675Z,76.29
2017-04-11T05:22:01.246Z,75.92
2017-04-11T05:22:59.812Z,76.25
2017-04-11T05:23:58.337Z,76.37
2017-04-11T05:24:56.851Z,76.45
2017-04-11T05:25:55.383Z,76.09
2017-04-11T05:26:53.899Z,76.31
2017-04-11T05:27:52.392Z,76.41
2017-04-11T05:28:51.020Z,76.30
2017-04-11T05:29:49.615Z,75.72
2017-04-11T05:30:48.259Z,75.48
2017-04-11T05:31:46.806Z,75.68
2017-04-11T05:32:45.529Z,75.66
2017-04-11T05:33:44.300Z,75.03
2017-04-11T05:34:42.822Z,75.21
2017-04-11T05:35:41.439Z,75.42
2017-04-11T05:36:40.067Z,75.39
2017-04-11T05:37:41.120Z,75.53
2017-04-11T05:38:40.750Z,75.70
2017-04-11T05:39:42.255Z,75.63
2017-04-11T05:40:42.046Z,75.66
2017-04-11T05:41:41.426Z,75.46
2017-04-11T05:42:40.753Z,75.66
2017-04-11T05:43:39.855Z,76.12
2017-04-11T05:44:38.963Z,75.87
2017-04-11T05:45:37.599Z,76.18
2017-04-11T05:46:36.840Z,75.67
2017-04-11T05:47:35.492Z,75.19
2017-04-11T05:48:34.281Z,75.22
2017-04-11T05:49:34.460Z,75.75
2017-04-11T05:50:33.770Z,75.88
2017-04-11T05:51:32.783Z,76.33
2017-04-11T05:52:31.292Z,76.09
2017-04-11T05:53:29.838Z,76.41
2017-04-11T05:54:28.380Z,76.15
2017-04-11T05:55:27.019Z,76.14
2017-04-11T05:56:28.992Z,76.44
2017-04-11T05:57:27.507Z,76.55
2017-04-11T05:58:26.739Z,75.94
2017-04-11T05:59:26.373Z,76.43
2017-04-11T06:00:24.907Z,76.54
2017-04-11T06:01:25.903Z,76.30
2017-04-11T06:02:24.407Z,76.53
2017-04-11T06:03:23.402Z,75.97
2017-04-11T06:04:21.891Z,76.15
2017-04-11T06:05:20.381Z,76.49
2017-04-11T06:06:18.932Z,76.98
2017-04-11T06:07:17.575Z,77.07
2017-04-11T06:08:16.356Z,77.46
2017-04-11T06:09:14.891Z,77.10
2017-04-11T06:10:13.522Z,76.78
2017-04-11T06:11:12.075Z,76.77
2017-04-11T06:12:10.606Z,76.94
2017-04-11T06:13:09.156Z,77.33
2017-04-11T06:14:07.917Z,77.37
2017-04-11T06:15:06.457Z,76.81
2017-04-11T06:16:05.036Z,76.84
2017-04-11T06:17:03.518Z,77.12
2017-04-11T06:18:02.016Z,77.73
2017-04-11T06:19:00.540Z,77.79
2017-04-11T06:19:59.051Z,77.95
2017-04-11T06:20:57.637Z,77.90
2017-04-11T06:21:56.227Z,77.09
2017-04-11T06:22:54.827Z,76.94
2017-04-11T06:23:53.352Z,76.87
2017-04-11T06:24:51.891Z,76.72
2017-04-11T06:25:50.380Z,76.67
2017-04-11T06:26:48.977Z,76.96
2017-04-11T06:27:47.491Z,76.84
2017-04-11T06:28:46.166Z,76.69
2017-04-11T06:29:44.691Z,76.69
2017-04-11T06:30:43.218Z,76.34
2017-04-11T06:31:41.763Z,76.37
2017-04-11T06:32:40.334Z,76.70
2017-04-11T06:33:38.867Z,76.46
2017-04-11T06:34:37.395Z,76.69
2017-04-11T06:35:35.924Z,76.70
2017-04-11T06:36:34.555Z,76.64
2017-04-11T06:37:33.077Z,76.84
2017-04-11T06:38:31.679Z,76.30
2017-04-11T06:39:30.186Z,75.09
2017-04-11T06:40:28.724Z,75.31
2017-04-11T06:41:27.234Z,74.88
2017-04-11T06:42:25.783Z,75.14
2017-04-11T06:43:24.370Z,75.83
2017-04-11T06:44:22.863Z,75.38
2017-04-11T06:45:21.353Z,75.25
2017-04-11T06:46:19.877Z,76.05
2017-04-11T06:47:18.934Z,75.56
2017-04-11T06:48:17.460Z,75.30
2017-04-11T06:49:15.985Z,74.65
2017-04-11T06:50:14.498Z,75.32
2017-04-11T06:51:13.156Z,75.10
2017-04-11T06:52:11.707Z,74.69
2017-04-11T06:53:10.217Z,75.47
2017-04-11T06:54:08.700Z,74.66
2017-04-11T06:55:07.256Z,74.25
2017-04-11T06:56:05.892Z,74.57
2017-04-11T06:57:04.404Z,74.22
2017-04-11T06:58:02.986Z,74.37
2017-04-11T06:59:01.532Z,74.61
2017-04-11T07:00:00.017Z,74.38
2017-04-11T07:00:58.567Z,74.12
2017-04-11T07:01:57.085Z,73.75
2017-04-11T07:02:56.794Z,73.40
2017-04-11T07:03:55.441Z,73.24
2017-04-11T07:04:54.547Z,72.93
2017-04-11T07:05:53.068Z,72.81
2017-04-11T07:06:51.601Z,72.07
2017-04-11T07:07:50.272Z,72.19
2017-04-11T07:08:48.788Z,72.78
2017-04-11T07:09:47.280Z,72.73
2017-04-11T07:10:45.863Z,73.31
2017-04-11T07:11:44.547Z,73.50
2017-04-11T07:12:43.031Z,73.13
2017-04-11T07:13:41.601Z,73.21
2017-04-11T07:14:40.210Z,72.97
2017-04-11T07:15:38.871Z,72.34
2017-04-11T07:16:37.528Z,72.16
2017-04-11T07:17:36.104Z,72.80
2017-04-11T07:18:34.687Z,72.32
2017-04-11T07:19:33.359Z,72.91
2017-04-11T07:20:31.974Z,73.29
2017-04-11T07:21:30.598Z,73.35
2017-04-11T07:22:29.142Z,73.33
2017-04-11T07:23:27.811Z,73.35
2017-04-11T07:24:26.413Z,73.22
2017-04-11T07:25:25.132Z,72.93
2017-04-11T07:26:23.656Z,72.80
2017-04-11T07:27:22.167Z,73.01
2017-04-11T07:28:20.642Z,72.71
2017-04-11T07:29:19.119Z,71.62
2017-04-11T07:30:17.648Z,70.93
2017-04-11T07:31:16.224Z,70.06
2017-04-11T07:32:14.740Z,69.98
2017-04-11T07:33:13.242Z,69.96
2017-04-11T07:34:11.740Z,70.35
2017-04-11T07:35:10.232Z,70.91
2017-04-11T07:36:08.752Z,70.48
2017-04-11T07:37:07.291Z,69.84
2017-04-11T07:38:05.775Z,70.69
2017-04-11T07:39:04.423Z,70.55
2017-04-11T07:40:03.039Z,70.18
2017-04-11T07:41:01.678Z,70.23
2017-04-11T07:42:01.356Z,70.07
2017-04-11T07:42:59.859Z,70.39
2017-04-11T07:43:58.323Z,70.23
2017-04-11T07:44:56.811Z,70.48
2017-04-11T07:45:55.297Z,70.28
2017-04-11T07:46:53.815Z,69.94
2017-04-11T07:47:52.320Z,69.81
2017-04-11T07:48:50.822Z,69.98
2017-04-11T07:49:49.439Z,69.43
2017-04-11T07:50:48.062Z,69.67
2017-04-11T07:51:46.562Z,69.81
2017-04-11T07:52:45.162Z,69.63
2017-04-11T07:53:43.796Z,69.92
2017-04-11T07:54:42.368Z,70.13
2017-04-11T07:55:40.898Z,70.78
2017-04-11T07:56:39.417Z,69.76
2017-04-11T07:57:37.950Z,69.90
2017-04-11T07:58:36.471Z,69.12
2017-04-11T07:59:34.954Z,69.43
2017-04-11T08:00:33.636Z,69.86
2017-04-11T08:01:32.207Z,69.68
2017-04-11T08:02:30.862Z,69.07
2017-04-11T08:03:29.458Z,69.40
2017-04-11T08:04:28.027Z,68.39
2017-04-11T08:05:26.775Z,67.18
2017-04-11T08:06:25.310Z,67.85
2017-04-11T08:07:23.891Z,68.28
2017-04-11T08:08:22.415Z,68.22
2017-04-11T08:09:20.971Z,67.88
2017-04-11T08:10:19.436Z,68.36
2017-04-11T08:11:17.971Z,67.72
2017-04-11T08:12:16.495Z,68.22
2017-04-11T08:13:14.996Z,67.49
2017-04-11T08:14:13.539Z,67.58
2017-04-11T08:15:12.090Z,67.59
2017-04-11T08:16:10.628Z,67.32
2017-04-11T08:17:09.139Z,67.61
2017-04-11T08:18:07.656Z,67.62
2017-04-11T08:19:06.169Z,67.45
2017-04-11T08:20:04.744Z,67.00
2017-04-11T08:21:03.223Z,67.59
2017-04-11T08:22:01.818Z,67.89
2017-04-11T08:23:00.463Z,66.48
2017-04-11T08:23:59.143Z,66.07
2017-04-11T08:24:57.722Z,66.15
2017-04-11T08:25:56.315Z,65.35
2017-04-11T08:26:54.814Z,65.84
2017-04-11T08:27:53.309Z,65.96
2017-04-11T08:28:51.842Z,65.55
2017-04-11T08:29:50.364Z,66.42
2017-04-11T08:30:48.964Z,65.20
2017-04-11T08:31:47.538Z,65.30
2017-04-11T08:32:46.105Z,65.88
2017-04-11T08:33:44.671Z,64.95
2017-04-11T08:34:43.247Z,65.42
2017-04-11T08:35:41.836Z,65.91
2017-04-11T08:36:40.337Z,65.14
2017-04-11T08:37:38.862Z,64.89
2017-04-11T08:38:37.393Z,65.43
2017-04-11T08:39:35.912Z,65.69
2017-04-11T08:40:34.451Z,67.11
2017-04-11T08:41:32.996Z,67.14
2017-04-11T08:42:31.515Z,66.70
2017-04-11T08:43:30.037Z,66.02
2017-04-11T08:44:28.643Z,66.07
2017-04-11T08:45:27.171Z,66.84
2017-04-11T08:46:25.735Z,66.59
2017-04-11T08:47:24.263Z,66.65
2017-04-11T08:48:22.867Z,67.28
2017-04-11T08:49:21.423Z,66.74
2017-04-11T08:50:20.232Z,67.26
2017-04-11T08:51:18.743Z,67.00
2017-04-11T08:52:17.316Z,66.97
2017-04-11T08:53:15.890Z,67.06
2017-04-11T08:54:14.447Z,66.95
2017-04-11T08:55:12.987Z,66.77
2017-04-11T08:56:11.579Z,66.55
2017-04-11T08:57:10.098Z,65.57
2017-04-11T08:58:08.717Z,65.85
2017-04-11T08:59:07.296Z,64.29
2017-04-11T09:00:05.961Z,64.03
2017-04-11T09:01:04.544Z,64.17
2017-04-11T09:02:03.159Z,64.60
2017-04-11T09:03:01.728Z,64.76
2017-04-11T09:04:00.319Z,64.45
2017-04-11T09:04:58.822Z,64.88
2017-04-11T09:05:57.439Z,65.19
2017-04-11T09:06:56.065Z,65.14
2017-04-11T09:07:54.709Z,64.81
2017-04-11T09:08:53.273Z,65.06
2017-04-11T09:09:51.815Z,65.07
2017-04-11T09:10:50.341Z,64.97
2017-04-11T09:11:48.955Z,65.06
2017-04-11T09:12:47.452Z,65.75
2017-04-11T09:13:46.037Z,65.96
2017-04-11T09:14:44.616Z,65.62
2017-04-11T09:15:43.127Z,65.11
2017-04-11T09:16:41.659Z,64.89
2017-04-11T09:17:40.229Z,64.52
2017-04-11T09:18:38.832Z,64.28
2017-04-11T09:19:37.406Z,65.04
2017-04-11T09:20:35.956Z,65.17
2017-04-11T09:21:34.511Z,65.55
2017-04-11T09:22:33.052Z,65.27
2017-04-11T09:23:31.791Z,65.40
2017-04-11T09:24:30.319Z,65.11
2017-04-11T09:25:28.839Z,65.16
2017-04-11T09:26:27.307Z,65.05
2017-04-11T09:27:25.952Z,64.24
2017-04-11T09:28:24.457Z,63.90
2017-04-11T09:29:23.023Z,63.63
2017-04-11T09:30:21.629Z,63.37
2017-04-11T09:31:20.311Z,63.44
2017-04-11T09:32:18.883Z,63.40
2017-04-11T09:33:17.700Z,64.01
2017-04-11T09:34:16.276Z,63.83
2017-04-11T09:35:14.869Z,63.58
2017-04-11T09:36:13.407Z,63.03
2017-04-11T09:37:12.067Z,62.66
2017-04-11T09:38:10.623Z,62.58
2017-04-11T09:39:09.151Z,62.88
2017-04-11T09:40:07.699Z,62.86
2017-04-11T09:41:06.217Z,60.87
2017-04-11T09:42:04.827Z,60.74
2017-04-11T09:43:03.366Z,60.80
2017-04-11T09:44:01.963Z,61.16
2017-04-11T09:45:00.482Z,60.82
2017-04-11T09:45:59.100Z,59.32
2017-04-11T09:46:57.666Z,57.86
2017-04-11T09:47:56.262Z,58.17
2017-04-11T09:48:54.885Z,57.62
2017-04-11T09:49:53.438Z,58.18
2017-04-11T09:50:52.114Z,58.63
2017-04-11T09:51:50.639Z,58.66
2017-04-11T09:52:49.161Z,56.55
2017-04-11T09:53:47.695Z,57.48
2017-04-11T09:54:46.269Z,57.65
2017-04-11T09:55:44.925Z,57.83
2017-04-11T09:56:43.539Z,57.89
2017-04-11T09:57:43.103Z,57.64
2017-04-11T09:58:41.610Z,53.37
2017-04-11T09:59:40.148Z,53.50
2017-04-11T10:00:38.903Z,54.35
2017-04-11T10:01:37.507Z,55.28
2017-04-11T10:02:36.114Z,54.99
2017-04-11T10:03:34.720Z,54.71
2017-04-11T10:04:33.269Z,55.05
2017-04-11T10:05:31.785Z,54.25
2017-04-11T10:06:30.367Z,54.81
2017-04-11T10:07:28.891Z,54.90
2017-04-11T10:08:27.414Z,55.18
2017-04-11T10:09:26.068Z,55.58
2017-04-11T10:10:24.631Z,54.90
2017-04-11T10:11:23.178Z,53.83
2017-04-11T10:12:21.752Z,53.44
2017-04-11T10:13:20.287Z,54.41
2017-04-11T10:14:18.847Z,53.61
2017-04-11T10:15:17.356Z,54.69
2017-04-11T10:16:16.071Z,54.43
2017-04-11T10:17:14.580Z,54.21
2017-04-11T10:18:13.135Z,54.29
2017-04-11T10:19:11.676Z,54.84
2017-04-11T10:20:10.200Z,56.11
2017-04-11T10:21:08.752Z,55.81
2017-04-11T10:22:07.264Z,54.61
2017-04-11T10:23:05.759Z,54.34
2017-04-11T10:24:04.275Z,54.43
2017-04-11T10:25:02.777Z,54.47
2017-04-11T10:26:01.383Z,55.22
2017-04-11T10:26:59.875Z,52.41
2017-04-11T10:27:58.421Z,52.50
2017-04-11T10:28:56.957Z,53.11
2017-04-11T10:29:55.548Z,52.10
2017-04-11T10:30:54.160Z,52.70
2017-04-11T10:31:52.771Z,53.45
2017-04-11T10:32:51.407Z,51.58
2017-04-11T10:33:50.090Z,51.23
2017-04-11T10:34:48.574Z,50.73
2017-04-11T10:35:47.098Z,50.53
2017-04-11T10:36:45.616Z,50.82
2017-04-11T10:37:44.220Z,51.75
2017-04-11T10:38:42.785Z,51.12
2017-04-11T10:39:41.350Z,51.41
2017-04-11T10:40:39.873Z,50.54
2017-04-11T10:41:38.420Z,50.27
2017-04-11T10:42:36.987Z,49.28
2017-04-11T10:43:35.539Z,49.99
2017-04-11T10:44:34.131Z,50.61
2017-04-11T10:45:32.664Z,50.66
2017-04-11T10:46:31.195Z,50.11
2017-04-11T10:47:29.708Z,50.46
2017-04-11T10:48:28.276Z,51.31
2017-04-11T10:49:26.834Z,50.80
2017-04-11T10:50:25.398Z,50.40
2017-04-11T10:51:23.919Z,49.63
2017-04-11T10:52:22.470Z,49.97
2017-04-11T10:53:21.086Z,49.93
2017-04-11T10:54:19.648Z,51.29
2017-04-11T10:55:18.146Z,51.95
2017-04-11T10:56:16.640Z,52.24
2017-04-11T10:57:15.167Z,51.94
2017-04-11T10:58:13.683Z,50.95
2017-04-11T10:59:12.263Z,51.33
2017-04-11T11:00:10.740Z,51.19
2017-04-11T11:01:09.287Z,50.40
2017-04-11T11:02:07.865Z,50.02
2017-04-11T11:03:06.410Z,49.85
2017-04-11T11:04:04.937Z,49.69
2017-04-11T11:05:03.507Z,47.93
2017-04-11T11:06:02.092Z,46.70
2017-04-11T11:07:00.590Z,47.30
2017-04-11T11:07:59.114Z,45.34
2017-04-11T11:08:57.650Z,44.50
2017-04-11T11:09:56.155Z,44.24
2017-04-11T11:10:54.650Z,44.21
2017-04-11T11:11:53.280Z,44.47
2017-04-11T11:12:51.892Z,44.71
2017-04-11T11:13:50.487Z,44.13
2017-04-11T11:14:49.009Z,43.72
2017-04-11T11:15:47.587Z,44.03
2017-04-11T11:16:46.284Z,44.74
2017-04-11T11:17:44.831Z,44.31
2017-04-11T11:18:43.348Z,45.54
2017-04-11T11:19:41.892Z,46.17
2017-04-11T11:20:40.395Z,46.04
2017-04-11T11:21:38.905Z,46.40
2017-04-11T11:22:37.435Z,45.28
2017-04-11T11:23:35.995Z,44.00
2017-04-11T11:24:34.540Z,44.84
2017-04-11T11:25:33.067Z,44.34
2017-04-11T11:26:31.657Z,43.70
2017-04-11T11:27:30.228Z,43.98
2017-04-11T11:28:28.806Z,44.14
2017-04-11T11:29:27.339Z,44.79
2017-04-11T11:30:25.891Z,45.29
2017-04-11T11:31:24.431Z,45.48
2017-04-11T11:32:22.934Z,44.78
2017-04-11T11:33:21.434Z,44.69
2017-04-11T11:34:20.044Z,44.37
2017-04-11T11:35:18.548Z,44.97
2017-04-11T11:36:17.127Z,44.85
2017-04-11T11:37:15.702Z,44.07
2017-04-11T11:38:14.339Z,43.50
2017-04-11T11:39:12.895Z,43.38
2017-04-11T11:40:11.408Z,42.54
2017-04-11T11:41:09.948Z,42.06
2017-04-11T11:42:08.598Z,41.76
2017-04-11T11:43:07.107Z,40.85
2017-04-11T11:44:05.800Z,41.80
2017-04-11T11:45:04.442Z,42.66
2017-04-11T11:46:02.993Z,40.36
2017-04-11T11:47:01.526Z,40.07
2017-04-11T11:48:00.161Z,40.08
2017-04-11T11:48:58.689Z,38.91
2017-04-11T11:49:57.174Z,39.12
2017-04-11T11:50:55.716Z,38.69
2017-04-11T11:51:54.246Z,37.80
2017-04-11T11:52:52.853Z,36.89
2017-04-11T11:53:51.375Z,37.63
2017-04-11T11:54:49.940Z,37.53
2017-04-11T11:55:48.489Z,37.62
2017-04-11T11:56:47.034Z,37.97
2017-04-11T11:57:45.571Z,37.99
2017-04-11T11:58:44.064Z,37.31
2017-04-11T11:59:42.595Z,38.04
2017-04-11T12:00:41.126Z,37.91
2017-04-11T12:01:39.706Z,36.62
2017-04-11T12:02:38.227Z,36.33
2017-04-11T12:03:36.812Z,36.00
2017-04-11T12:04:35.341Z,36.96
2017-04-11T12:05:34.039Z,37.06
2017-04-11T12:06:32.543Z,36.09
2017-04-11T12:07:31.164Z,35.70
2017-04-11T12:08:29.806Z,35.75
2017-04-11T12:09:28.440Z,35.46
2017-04-11T12:10:27.079Z,34.65
2017-04-11T12:11:25.713Z,35.43
2017-04-11T12:12:24.223Z,36.90
2017-04-11T12:13:22.746Z,37.55
2017-04-11T12:14:21.249Z,37.04
2017-04-11T12:15:19.776Z,37.07
2017-04-11T12:16:18.321Z,36.70
2017-04-11T12:17:16.856Z,34.51
2017-04-11T12:18:15.370Z,35.02
2017-04-11T12:19:13.893Z,35.36
2017-04-11T12:20:12.454Z,32.38
2017-04-11T12:21:11.059Z,33.69
2017-04-11T12:22:09.747Z,33.19
2017-04-11T12:23:08.336Z,33.75
2017-04-11T12:24:06.859Z,34.48
2017-04-11T12:25:05.376Z,35.21
2017-04-11T12:26:03.911Z,35.29
2017-04-11T12:27:02.407Z,36.40
2017-04-11T12:28:00.943Z,35.56
2017-04-11T12:28:59.460Z,35.76
2017-04-11T12:29:58.001Z,34.89
2017-04-11T12:30:56.603Z,34.10
2017-04-11T12:31:55.130Z,34.84
2017-04-11T12:32:53.658Z,34.89
2017-04-11T12:33:52.220Z,35.06
2017-04-11T12:34:50.753Z,35.01